createdAt,value
2017-11-12T00:00:47.167Z,4.30
2017-11-12T00:03:14.582Z,4.20
2017-11-12T00:05:42.003Z,4.30
2017-11-12T00:08:10.180Z,4.30
2017-11-12T00:10:38.384Z,4.20
2017-11-12T00:13:05.794Z,4.20
2017-11-12T00:15:33.968Z,4.20
2017-11-12T00:18:02.147Z,4.20
2017-11-12T00:20:30.326Z,4.20
2017-11-12T00:22:58.520Z,4.10
2017-11-12T00:25:25.923Z,4.10
2017-11-12T00:27:53.343Z,4.10
2017-11-12T00:30:20.753Z,4.10
2017-11-12T00:32:48.171Z,4.10
2017-11-12T00:35:15.586Z,4.10
2017-11-12T00:37:43.010Z,4.10
2017-11-12T00:40:10.427Z,4.10
2017-11-12T00:42:37.855Z,4.10
2017-11-12T00:45:05.269Z,4.10
2017-11-12T00:47:32.706Z,4.20
2017-11-12T00:50:00.106Z,4.20
2017-11-12T00:52:28.312Z,4.20
2017-11-12T00:54:55.728Z,4.20
2017-11-12T00:57:23.139Z,4.20
2017-11-12T00:59:50.556Z,4.20
2017-11-12T01:02:18.739Z,4.20
2017-11-12T01:04:46.160Z,4.20
2017-11-12T01:07:13.579Z,4.20
2017-11-12T01:09:41.025Z,4.10
2017-11-12T01:12:08.419Z,4.20
2017-11-12T01:14:35.843Z,4.20
2017-11-12T01:17:03.250Z,4.20
2017-11-12T01:19:30.674Z,4.20
2017-11-12T01:21:58.088Z,4.20
2017-11-12T01:24:26.271Z,4.30
2017-11-12T01:26:53.695Z,4.20
2017-11-12T01:29:21.103Z,4.20
2017-11-12T01:31:48.519Z,4.20
2017-11-12T01:34:16.700Z,4.10
2017-11-12T01:36:44.892Z,4.10
2017-11-12T01:39:12.303Z,4.10
2017-11-12T01:41:39.730Z,4.10
2017-11-12T01:44:07.147Z,4.20
2017-11-12T01:46:35.324Z,4.20
2017-11-12T01:49:02.734Z,4.20
2017-11-12T01:51:30.158Z,4.20
2017-11-12T01:53:57.562Z,4.10
2017-11-12T01:56:24.977Z,4.10
2017-11-12T01:58:52.390Z,4.00
2017-11-12T02:01:20.571Z,4.00
2017-11-12T02:03:47.987Z,4.00
2017-11-12T02:06:16.741Z,4.10
2017-11-12T02:08:44.147Z,4.10
2017-11-12T02:11:11.576Z,4.10
2017-11-12T02:13:38.995Z,4.10
2017-11-12T02:16:06.407Z,4.20
2017-11-12T02:18:34.233Z,4.20
2017-11-12T02:21:01.627Z,4.20
2017-11-12T02:23:29.054Z,4.20
2017-11-12T02:25:57.592Z,4.30
2017-11-12T02:28:25.790Z,4.30
2017-11-12T02:30:54.460Z,4.30
2017-11-12T02:33:21.871Z,4.30
2017-11-12T02:35:49.298Z,4.30
2017-11-12T02:38:16.712Z,4.30
2017-11-12T02:40:44.905Z,4.40
2017-11-12T02:43:12.322Z,4.40
2017-11-12T02:45:39.745Z,4.50
2017-11-12T02:48:07.143Z,4.50
2017-11-12T02:50:34.579Z,4.50
2017-11-12T02:53:01.974Z,4.50
2017-11-12T02:55:30.163Z,4.40
2017-11-12T02:57:57.583Z,4.40
2017-11-12T03:00:25.019Z,4.40
2017-11-12T03:02:53.326Z,4.40
2017-11-12T03:05:21.513Z,4.40
2017-11-12T03:07:49.701Z,4.40
2017-11-12T03:10:17.104Z,4.40
2017-11-12T03:12:44.530Z,4.30
2017-11-12T03:15:11.949Z,4.40
2017-11-12T03:17:40.123Z,4.30
2017-11-12T03:20:08.299Z,4.30
2017-11-12T03:22:36.482Z,4.20
2017-11-12T03:25:03.895Z,4.20
2017-11-12T03:27:31.320Z,4.20
2017-11-12T03:29:58.727Z,4.20
2017-11-12T03:32:26.916Z,4.30
2017-11-12T03:34:55.097Z,4.30
2017-11-12T03:37:23.282Z,4.20
2017-11-12T03:39:50.691Z,4.20
2017-11-12T03:42:18.114Z,4.20
2017-11-12T03:44:45.524Z,4.20
2017-11-12T03:47:13.734Z,4.20
2017-11-12T03:49:41.139Z,4.10
2017-11-12T03:52:08.556Z,4.20
2017-11-12T03:54:35.972Z,4.20
2017-11-12T03:57:04.149Z,4.20
2017-11-12T03:59:32.337Z,4.20
2017-11-12T04:01:59.741Z,4.20
2017-11-12T04:04:27.158Z,4.20
2017-11-12T04:06:54.571Z,4.20
2017-11-12T04:09:21.991Z,4.20
2017-11-12T04:11:50.175Z,4.20
2017-11-12T04:14:17.610Z,4.10
2017-11-12T04:16:45.014Z,4.20
2017-11-12T04:19:12.446Z,4.20
2017-11-12T04:21:39.863Z,4.20
2017-11-12T04:24:07.260Z,4.10
2017-11-12T04:26:34.670Z,4.20
2017-11-12T04:29:02.081Z,4.20
2017-11-12T04:31:29.500Z,4.20
2017-11-12T04:33:56.911Z,4.20
2017-11-12T04:36:24.325Z,4.20
2017-11-12T04:38:51.738Z,4.20
2017-11-12T04:41:19.158Z,4.20
2017-11-12T04:43:46.562Z,4.10
2017-11-12T04:46:13.983Z,4.10
2017-11-12T04:48:41.397Z,4.30
2017-11-12T04:51:08.814Z,4.30
2017-11-12T04:53:36.991Z,4.10
2017-11-12T04:56:05.207Z,4.10
2017-11-12T04:58:32.638Z,4.10
2017-11-12T05:01:00.039Z,4.10
2017-11-12T05:03:27.771Z,4.10
2017-11-12T05:05:55.175Z,4.10
2017-11-12T05:08:22.596Z,4.00
2017-11-12T05:10:50.007Z,4.10
2017-11-12T05:13:18.194Z,4.20
2017-11-12T05:15:45.599Z,4.10
2017-11-12T05:18:13.019Z,4.10
2017-11-12T05:20:40.423Z,4.20
2017-11-12T05:23:07.846Z,4.10
2017-11-12T05:25:35.269Z,4.00
2017-11-12T05:28:02.685Z,4.10
2017-11-12T05:30:30.908Z,4.20
2017-11-12T05:32:58.316Z,4.20
2017-11-12T05:35:25.736Z,4.10
2017-11-12T05:37:53.150Z,4.00
2017-11-12T05:40:21.336Z,3.50
2017-11-12T05:42:49.521Z,3.30
2017-11-12T05:45:16.923Z,3.30
2017-11-12T05:47:44.343Z,3.30
2017-11-12T05:50:11.755Z,3.20
2017-11-12T05:52:39.178Z,3.20
2017-11-12T05:55:06.600Z,3.20
2017-11-12T05:57:34.007Z,3.30
2017-11-12T06:00:01.425Z,3.30
2017-11-12T06:02:28.843Z,3.60
2017-11-12T06:04:57.027Z,3.90
2017-11-12T06:07:25.203Z,3.90
2017-11-12T06:09:53.404Z,3.80
2017-11-12T06:12:20.804Z,3.80
2017-11-12T06:14:48.237Z,3.80
2017-11-12T06:17:15.639Z,3.70
2017-11-12T06:19:43.823Z,3.20
2017-11-12T06:22:11.237Z,3.20
2017-11-12T06:24:38.663Z,3.20
2017-11-12T06:27:06.079Z,3.10
2017-11-12T06:29:34.259Z,3.10
2017-11-12T06:32:02.437Z,3.00
2017-11-12T06:34:29.848Z,3.00
2017-11-12T06:36:57.267Z,3.00
2017-11-12T06:39:24.671Z,3.10
2017-11-12T06:41:52.108Z,3.20
2017-11-12T06:44:19.513Z,3.30
2017-11-12T06:46:47.692Z,3.40
2017-11-12T06:49:15.108Z,3.40
2017-11-12T06:51:42.524Z,3.30
2017-11-12T06:54:09.935Z,3.30
2017-11-12T06:56:37.356Z,3.20
2017-11-12T06:59:04.754Z,3.00
2017-11-12T07:01:32.956Z,3.10
2017-11-12T07:04:00.937Z,3.10
2017-11-12T07:06:28.350Z,3.30
2017-11-12T07:08:56.535Z,3.40
2017-11-12T07:11:24.741Z,3.20
2017-11-12T07:13:52.161Z,3.20
2017-11-12T07:16:20.348Z,3.10
2017-11-12T07:18:48.530Z,3.10
2017-11-12T07:21:15.943Z,3.10
2017-11-12T07:23:43.364Z,3.20
2017-11-12T07:26:10.783Z,3.40
2017-11-12T07:28:38.967Z,3.40
2017-11-12T07:31:06.380Z,3.40
2017-11-12T07:33:33.822Z,3.20
2017-11-12T07:36:01.236Z,3.10
2017-11-12T07:38:28.643Z,3.10
2017-11-12T07:40:56.129Z,3.20
2017-11-12T07:43:24.303Z,3.50
2017-11-12T07:45:52.494Z,3.60
2017-11-12T07:48:19.913Z,3.60
2017-11-12T07:50:47.334Z,3.70
2017-11-12T07:53:14.751Z,3.90
2017-11-12T07:55:42.935Z,3.70
2017-11-12T07:58:10.344Z,3.70
2017-11-12T08:00:37.763Z,3.80
2017-11-12T08:03:05.170Z,3.90
2017-11-12T08:05:32.599Z,4.00
2017-11-12T08:08:00.020Z,4.00
2017-11-12T08:10:27.476Z,4.00
2017-11-12T08:12:54.889Z,4.00
2017-11-12T08:15:22.290Z,4.00
2017-11-12T08:17:49.695Z,4.20
2017-11-12T08:20:17.113Z,4.30
2017-11-12T08:22:44.535Z,4.40
2017-11-12T08:25:12.721Z,4.50
2017-11-12T08:27:40.922Z,4.60
2017-11-12T08:30:08.324Z,4.60
2017-11-12T08:32:35.740Z,4.50
2017-11-12T08:35:03.147Z,4.40
2017-11-12T08:37:31.339Z,4.70
2017-11-12T08:39:59.516Z,4.80
2017-11-12T08:42:26.932Z,4.80
2017-11-12T08:44:54.354Z,4.90
2017-11-12T08:47:21.783Z,4.90
2017-11-12T08:49:49.199Z,4.80
2017-11-12T08:52:16.623Z,4.90
2017-11-12T08:54:44.807Z,4.90
2017-11-12T08:57:12.222Z,5.00
2017-11-12T08:59:40.407Z,4.90
2017-11-12T09:02:07.829Z,4.90
2017-11-12T09:04:35.250Z,5.00
2017-11-12T09:07:02.657Z,5.10
2017-11-12T09:09:30.839Z,4.90
2017-11-12T09:11:59.020Z,4.60
2017-11-12T09:14:26.441Z,4.60
2017-11-12T09:16:53.842Z,4.40
2017-11-12T09:19:21.266Z,4.30
2017-11-12T09:21:49.440Z,4.20
2017-11-12T09:24:17.644Z,4.20
2017-11-12T09:26:45.059Z,4.20
2017-11-12T09:29:12.471Z,4.30
2017-11-12T09:31:39.886Z,4.30
2017-11-12T09:34:08.078Z,4.70
2017-11-12T09:36:35.486Z,4.70
2017-11-12T09:39:02.908Z,4.60
2017-11-12T09:41:30.327Z,4.50
2017-11-12T09:43:58.512Z,4.40
2017-11-12T09:46:26.687Z,4.30
2017-11-12T09:48:54.099Z,4.30
2017-11-12T09:51:21.518Z,4.20
2017-11-12T09:53:48.930Z,4.20
2017-11-12T09:56:16.375Z,4.00
2017-11-12T09:58:43.783Z,3.90
2017-11-12T10:01:11.200Z,4.20
2017-11-12T10:03:39.138Z,4.30
2017-11-12T10:06:06.552Z,4.50
2017-11-12T10:08:33.985Z,4.70
2017-11-12T10:11:01.373Z,4.80
2017-11-12T10:13:28.789Z,4.80
2017-11-12T10:15:56.202Z,4.80
2017-11-12T10:18:23.614Z,4.80
2017-11-12T10:20:51.783Z,4.80
2017-11-12T10:23:19.964Z,4.80
2017-11-12T10:25:48.144Z,4.80
2017-11-12T10:28:16.320Z,4.80
2017-11-12T10:30:44.495Z,4.70
2017-11-12T10:33:12.693Z,4.30
2017-11-12T10:35:40.095Z,4.30
2017-11-12T10:38:07.507Z,3.90
2017-11-12T10:40:34.927Z,4.00
2017-11-12T10:43:03.781Z,3.90
2017-11-12T10:45:31.182Z,3.80
2017-11-12T10:47:58.599Z,3.80
2017-11-12T10:50:26.008Z,4.00
2017-11-12T10:52:53.411Z,4.10
2017-11-12T10:55:21.469Z,4.10
2017-11-12T10:57:48.855Z,4.20
2017-11-12T11:00:17.034Z,4.50
2017-11-12T11:02:45.221Z,4.60
2017-11-12T11:05:13.406Z,4.60
2017-11-12T11:07:40.818Z,4.60
2017-11-12T11:10:08.252Z,4.70
2017-11-12T11:12:35.664Z,4.60
2017-11-12T11:18:01.038Z,4.30
2017-11-12T11:20:34.762Z,4.30
2017-11-12T11:25:37.621Z,4.20
2017-11-12T11:28:07.008Z,4.20
2017-11-12T11:30:40.837Z,4.40
2017-11-12T11:33:09.440Z,4.40
2017-11-12T11:35:37.293Z,4.50
2017-11-12T11:38:05.459Z,4.50
2017-11-12T11:40:37.653Z,4.50
2017-11-12T11:43:06.258Z,4.50
2017-11-12T11:45:34.897Z,4.40
2017-11-12T11:48:04.448Z,4.40
2017-11-12T11:50:34.050Z,4.50
2017-11-12T11:53:02.255Z,4.50
2017-11-12T11:55:29.663Z,4.50
2017-11-12T11:57:57.887Z,4.50
2017-11-12T12:00:29.313Z,4.40
2017-11-12T12:02:59.378Z,4.40
2017-11-12T12:05:27.562Z,4.40
2017-11-12T12:07:56.746Z,4.40
2017-11-12T12:10:25.575Z,4.30
2017-11-12T12:12:56.859Z,4.30
2017-11-12T12:15:25.458Z,4.40
2017-11-12T12:17:54.142Z,4.40
2017-11-12T12:20:23.736Z,4.40
2017-11-12T12:22:51.119Z,4.40
2017-11-12T12:25:19.303Z,4.30
2017-11-12T12:27:49.004Z,4.20
2017-11-12T12:30:19.138Z,4.10
2017-11-12T12:32:49.277Z,4.10
2017-11-12T12:35:18.932Z,4.20
2017-11-12T12:37:47.339Z,4.20
2017-11-12T12:40:15.308Z,4.30
2017-11-12T12:42:43.347Z,4.20
2017-11-12T12:45:10.754Z,4.20
2017-11-12T12:47:38.164Z,4.20
2017-11-12T12:50:06.405Z,4.10
2017-11-12T12:52:36.580Z,4.20
2017-11-12T12:55:06.186Z,4.30
2017-11-12T12:57:34.382Z,4.30
2017-11-12T13:00:03.484Z,4.30
2017-11-12T13:02:34.851Z,4.30
2017-11-12T13:05:04.086Z,4.30
2017-11-12T13:07:31.492Z,4.50
2017-11-12T13:10:01.263Z,4.50
2017-11-12T13:12:28.648Z,4.50
2017-11-12T13:14:56.059Z,4.50
2017-11-12T13:17:24.592Z,4.60
2017-11-12T13:19:52.647Z,4.50
2017-11-12T13:22:21.222Z,4.40
2017-11-12T13:24:48.620Z,4.40
2017-11-12T13:27:17.898Z,4.40
2017-11-12T13:29:45.319Z,4.40
2017-11-12T13:32:14.891Z,4.40
2017-11-12T13:34:45.158Z,4.40
2017-11-12T13:37:12.548Z,4.40
2017-11-12T13:39:40.903Z,4.40
2017-11-12T13:42:09.343Z,4.50
2017-11-12T13:44:36.750Z,4.50
2017-11-12T13:47:04.827Z,4.40
2017-11-12T13:49:35.786Z,4.40
2017-11-12T13:52:03.747Z,4.40
2017-11-12T13:54:31.931Z,4.40
2017-11-12T13:57:00.354Z,4.50
2017-11-12T13:59:28.911Z,4.50
2017-11-12T14:01:56.960Z,4.70
2017-11-12T14:04:24.383Z,4.70
2017-11-12T14:06:53.911Z,4.30
2017-11-12T14:09:22.223Z,4.30
2017-11-12T14:11:50.187Z,4.40
2017-11-12T14:14:19.907Z,4.60
2017-11-12T14:16:47.564Z,4.60
2017-11-12T14:19:16.465Z,4.70
2017-11-12T14:21:44.623Z,4.70
2017-11-12T14:24:12.799Z,4.50
2017-11-12T14:26:42.404Z,4.20
2017-11-12T14:29:11.294Z,4.20
2017-11-12T14:31:43.396Z,4.20
2017-11-12T14:34:11.341Z,4.10
2017-11-12T14:36:39.396Z,4.10
2017-11-12T14:39:10.712Z,4.10
2017-11-12T14:41:41.115Z,4.10
2017-11-12T14:44:10.425Z,4.10
2017-11-12T14:46:37.827Z,4.10
2017-11-12T14:49:06.951Z,4.00
2017-11-12T14:51:34.591Z,4.00
2017-11-12T14:54:03.367Z,3.80
2017-11-12T14:56:34.073Z,3.80
2017-11-12T14:59:01.472Z,3.80
2017-11-12T15:01:30.283Z,3.80
2017-11-12T15:03:58.354Z,3.80
2017-11-12T15:06:27.132Z,3.80
2017-11-12T15:08:54.547Z,3.80
2017-11-12T15:11:21.961Z,3.80
2017-11-12T15:13:50.507Z,3.80
2017-11-12T15:16:20.735Z,3.60
2017-11-12T15:18:48.544Z,3.60
2017-11-12T15:21:20.917Z,3.50
2017-11-12T15:23:48.664Z,3.50
2017-11-12T15:26:17.550Z,3.50
2017-11-12T15:28:47.481Z,3.50
2017-11-12T15:31:14.892Z,3.50
2017-11-12T15:33:49.855Z,3.50
2017-11-12T15:36:18.168Z,3.50
2017-11-12T15:38:45.582Z,3.50
2017-11-12T15:41:14.783Z,3.50
2017-11-12T15:43:45.308Z,3.40
2017-11-12T15:46:13.874Z,3.40
2017-11-12T15:48:43.094Z,3.30
2017-11-12T15:51:11.179Z,3.30
2017-11-12T15:53:42.916Z,3.30
2017-11-12T15:56:11.931Z,3.20
2017-11-12T15:58:40.227Z,3.30
2017-11-12T16:01:08.473Z,3.20
2017-11-12T16:03:36.295Z,3.10
2017-11-12T16:06:06.934Z,3.00
2017-11-12T16:08:38.729Z,3.00
2017-11-12T16:11:07.247Z,2.90
2017-11-12T16:13:36.396Z,2.90
2017-11-12T16:16:06.323Z,2.80
2017-11-12T16:18:36.363Z,2.90
2017-11-12T16:21:04.813Z,2.90
2017-11-12T16:23:36.987Z,2.90
2017-11-12T16:26:05.874Z,2.90
2017-11-12T16:28:38.282Z,2.90
2017-11-12T16:31:09.620Z,2.90
2017-11-12T16:33:54.349Z,2.90
2017-11-12T16:36:22.794Z,2.90
2017-11-12T16:38:52.139Z,2.80
2017-11-12T16:41:19.547Z,2.70
2017-11-12T16:43:48.180Z,2.80
2017-11-12T16:46:18.712Z,2.80
2017-11-12T16:48:47.000Z,2.80
2017-11-12T16:51:16.672Z,2.90
2017-11-12T16:53:50.496Z,3.00
2017-11-12T16:56:18.154Z,3.00
2017-11-12T16:58:47.618Z,3.00
2017-11-12T17:01:16.310Z,3.00
2017-11-12T17:03:46.578Z,3.00
2017-11-12T17:06:16.142Z,3.00
2017-11-12T17:08:46.387Z,3.00
2017-11-12T17:11:15.788Z,2.90
2017-11-12T17:13:44.775Z,3.00
2017-11-12T17:16:12.188Z,3.10
2017-11-12T17:18:40.735Z,3.10
2017-11-12T17:21:11.057Z,3.10
2017-11-12T17:23:40.100Z,3.00
2017-11-12T17:26:09.345Z,2.90
2017-11-12T17:28:37.663Z,2.90
2017-11-12T17:31:08.107Z,2.70
2017-11-12T17:33:38.447Z,2.30
2017-11-12T17:36:07.628Z,2.20
2017-11-12T17:38:36.486Z,2.20
2017-11-12T17:41:03.891Z,2.10
2017-11-12T17:43:33.032Z,2.00
2017-11-12T17:46:01.229Z,2.00
2017-11-12T17:48:29.736Z,2.00
2017-11-12T17:50:57.903Z,2.00
2017-11-12T17:53:27.345Z,2.00
2017-11-12T17:55:59.319Z,2.00
2017-11-12T17:58:26.720Z,2.10
2017-11-12T18:00:55.421Z,2.10
2017-11-12T18:03:24.940Z,2.00
2017-11-12T18:05:55.204Z,2.10
2017-11-12T18:08:23.166Z,2.00
2017-11-12T18:10:50.950Z,2.10
2017-11-12T18:13:20.328Z,2.10
2017-11-12T18:15:48.359Z,2.20
2017-11-12T18:18:16.932Z,2.30
2017-11-12T18:20:44.325Z,2.20
2017-11-12T18:23:13.423Z,2.20
2017-11-12T18:25:43.931Z,2.30
2017-11-12T18:28:14.732Z,2.30
2017-11-12T18:30:43.288Z,2.30
2017-11-12T18:33:11.481Z,2.30
2017-11-12T18:35:39.297Z,2.30
2017-11-12T18:38:07.646Z,2.40
2017-11-12T18:40:39.375Z,2.40
2017-11-12T18:43:07.618Z,2.40
2017-11-12T18:45:35.841Z,2.40
2017-11-12T18:48:04.507Z,2.40
2017-11-12T18:50:32.640Z,2.40
2017-11-12T18:53:02.344Z,2.30
2017-11-12T18:55:41.143Z,2.30
2017-11-12T18:58:11.422Z,2.30
2017-11-12T19:00:55.044Z,2.40
2017-11-12T19:03:39.235Z,2.40
2017-11-12T19:06:12.836Z,2.40
2017-11-12T19:08:43.680Z,2.40
2017-11-12T19:11:11.880Z,2.40
2017-11-12T19:13:40.767Z,2.40
2017-11-12T19:16:08.947Z,2.50
2017-11-12T19:18:51.770Z,2.50
2017-11-12T19:21:25.372Z,2.60
2017-11-12T19:23:59.289Z,2.60
2017-11-12T19:26:29.107Z,2.60
2017-11-12T19:29:00.440Z,2.60
2017-11-12T19:31:31.555Z,2.50
2017-11-12T19:34:00.406Z,2.50
2017-11-12T19:36:27.811Z,2.50
2017-11-12T19:38:57.534Z,2.60
2017-11-12T19:41:26.467Z,2.60
2017-11-12T19:43:55.292Z,2.60
2017-11-12T19:46:24.360Z,2.70
2017-11-12T19:48:52.323Z,2.70
2017-11-12T19:51:22.435Z,2.70
2017-11-12T19:53:51.484Z,2.70
2017-11-12T19:56:20.560Z,2.70
2017-11-12T19:58:49.764Z,2.80
2017-11-12T20:01:21.054Z,2.80
2017-11-12T20:03:50.143Z,2.80
2017-11-12T20:06:18.799Z,2.70
2017-11-12T20:08:48.027Z,2.70
2017-11-12T20:11:16.740Z,2.70
2017-11-12T20:13:44.154Z,2.70
2017-11-12T20:16:12.613Z,2.70
2017-11-12T20:18:40.783Z,2.80
2017-11-12T20:21:08.971Z,2.80
2017-11-12T20:23:36.386Z,2.80
2017-11-12T20:26:05.528Z,2.80
2017-11-12T20:28:32.952Z,2.70
2017-11-12T20:31:01.786Z,2.70
2017-11-12T20:33:29.979Z,2.80
2017-11-12T20:35:58.168Z,2.70
2017-11-12T20:38:28.224Z,2.70
2017-11-12T20:40:57.865Z,2.60
2017-11-12T20:43:27.068Z,2.60
2017-11-12T20:45:54.479Z,2.50
2017-11-12T20:48:22.671Z,2.50
2017-11-12T20:50:54.413Z,2.60
2017-11-12T20:53:23.450Z,2.60
2017-11-12T20:55:51.103Z,2.70
2017-11-12T20:58:20.392Z,2.70
2017-11-12T21:00:49.713Z,2.70
2017-11-12T21:03:18.514Z,2.80
2017-11-12T21:05:48.946Z,2.90
2017-11-12T21:08:17.195Z,2.90
2017-11-12T21:13:39.056Z,2.90
2017-11-12T21:16:07.843Z,2.90
2017-11-12T21:18:36.074Z,2.80
2017-11-12T21:21:17.823Z,2.80
2017-11-12T21:23:47.407Z,2.80
2017-11-12T21:28:56.896Z,2.70
2017-11-12T21:31:30.500Z,2.70
2017-11-12T21:34:17.580Z,2.70
2017-11-12T21:36:47.650Z,2.60
2017-11-12T21:39:15.823Z,2.60
2017-11-12T21:41:49.675Z,2.60
2017-11-12T21:44:17.087Z,2.60
2017-11-12T21:46:45.015Z,2.50
2017-11-12T21:49:12.665Z,2.60
2017-11-12T21:51:42.698Z,2.60
2017-11-12T21:54:11.567Z,2.70
2017-11-12T21:56:40.052Z,2.70
2017-11-12T21:59:07.459Z,2.80
2017-11-12T22:01:34.869Z,2.80
2017-11-12T22:04:03.345Z,2.80
2017-11-12T22:06:32.423Z,2.90
2017-11-12T22:09:00.587Z,2.90
2017-11-12T22:11:30.538Z,2.90
2017-11-12T22:16:33.419Z,2.90
2017-11-12T22:19:01.350Z,3.00
2017-11-12T22:21:28.754Z,2.90
2017-11-12T22:23:57.041Z,2.90
2017-11-12T22:26:24.831Z,3.00
2017-11-12T22:28:52.762Z,2.90
2017-11-12T22:31:23.975Z,2.90
2017-11-12T22:33:55.713Z,3.00
2017-11-12T22:36:25.850Z,3.00
2017-11-12T22:38:55.427Z,3.00
2017-11-12T22:41:25.344Z,3.00
2017-11-12T22:43:53.978Z,3.10
2017-11-12T22:46:25.343Z,3.10
2017-11-12T22:48:53.415Z,3.10
2017-11-12T22:51:23.731Z,3.10
2017-11-12T22:53:52.662Z,3.10
2017-11-12T22:56:20.091Z,3.10
2017-11-12T22:58:49.247Z,3.10
2017-11-12T23:01:18.892Z,3.20
2017-11-12T23:03:47.086Z,3.20
2017-11-12T23:06:14.500Z,3.10
2017-11-12T23:08:44.003Z,3.10
2017-11-12T23:11:13.557Z,3.10
2017-11-12T23:13:41.792Z,3.00
2017-11-12T23:16:09.869Z,3.00
2017-11-12T23:18:37.284Z,2.90
2017-11-12T23:21:06.254Z,2.90
2017-11-12T23:23:35.479Z,2.90
2017-11-12T23:26:04.595Z,3.00
2017-11-12T23:28:32.015Z,3.00
2017-11-12T23:31:02.819Z,2.90
2017-11-12T23:33:31.119Z,2.90
2017-11-12T23:35:58.792Z,2.90
2017-11-12T23:38:27.917Z,2.90
2017-11-12T23:40:59.460Z,3.00
2017-11-12T23:43:30.984Z,3.00
2017-11-12T23:45:59.952Z,3.00
2017-11-12T23:48:28.228Z,3.10
2017-11-12T23:50:56.567Z,3.10
2017-11-12T23:53:26.187Z,3.20
2017-11-12T23:55:54.901Z,3.10
2017-11-12T23:58:23.692Z,3.10
